createdAt,value
2022-12-18T00:04:39.818Z,-4.76
2022-12-18T00:09:41.625Z,-4.79
2022-12-18T00:14:43.524Z,-4.80
2022-12-18T00:19:45.391Z,-4.82
2022-12-18T00:24:47.217Z,-4.79
2022-12-18T00:29:50.174Z,-4.74
2022-12-18T00:34:52.037Z,-4.72
2022-12-18T00:39:53.847Z,-4.72
2022-12-18T00:44:55.902Z,-4.72
2022-12-18T00:49:57.708Z,-4.73
2022-12-18T00:55:04.482Z,-4.77
2022-12-18T01:00:11.112Z,-4.79
2022-12-18T01:05:14.481Z,-4.84
2022-12-18T01:10:16.337Z,-4.89
2022-12-18T01:15:19.238Z,-4.94
2022-12-18T01:20:21.165Z,-4.99
2022-12-18T01:25:22.994Z,-5.04
2022-12-18T01:30:26.296Z,-5.10
2022-12-18T01:35:28.653Z,-5.12
2022-12-18T01:40:30.454Z,-5.14
2022-12-18T01:45:33.167Z,-5.19
2022-12-18T01:50:39.697Z,-5.20
2022-12-18T01:55:50.164Z,-5.23
2022-12-18T02:00:52.056Z,-5.27
2022-12-18T02:06:18.424Z,-5.30
2022-12-18T02:11:24.496Z,-5.34
2022-12-18T02:16:52.730Z,-5.36
2022-12-18T02:22:35.541Z,-5.41
2022-12-18T02:27:40.898Z,-5.45
2022-12-18T02:32:49.781Z,-5.47
2022-12-18T02:37:56.664Z,-5.51
2022-12-18T02:43:25.098Z,-5.52
2022-12-18T02:48:32.112Z,-5.54
2022-12-18T02:53:54.479Z,-5.55
2022-12-18T02:59:07.520Z,-5.55
2022-12-18T03:04:48.704Z,-5.57
2022-12-18T03:09:55.184Z,-5.60
2022-12-18T03:15:17.470Z,-5.64
2022-12-18T03:20:25.198Z,-5.68
2022-12-18T03:25:29.258Z,-5.70
2022-12-18T03:30:33.793Z,-5.72
2022-12-18T03:35:41.279Z,-5.73
2022-12-18T03:41:07.654Z,-5.75
2022-12-18T03:46:42.394Z,-5.79
2022-12-18T03:52:03.152Z,-5.83
2022-12-18T03:57:15.032Z,-5.84
2022-12-18T04:02:19.223Z,-5.86
2022-12-18T04:07:22.937Z,-5.89
2022-12-18T04:12:27.322Z,-5.94
2022-12-18T04:17:29.309Z,-5.97
2022-12-18T04:22:32.857Z,-5.99
2022-12-18T04:27:35.542Z,-6.00
2022-12-18T04:32:39.782Z,-6.02
2022-12-18T04:37:42.429Z,-6.02
2022-12-18T04:42:44.419Z,-6.01
2022-12-18T04:47:46.277Z,-6.01
2022-12-18T04:52:48.126Z,-6.02
2022-12-18T04:57:49.996Z,-6.03
2022-12-18T05:02:51.947Z,-6.02
2022-12-18T05:07:53.852Z,-6.05
2022-12-18T05:12:59.109Z,-6.06
2022-12-18T05:18:03.709Z,-6.09
2022-12-18T05:23:05.484Z,-6.13
2022-12-18T05:28:07.266Z,-6.19
2022-12-18T05:33:09.216Z,-6.25
2022-12-18T05:38:11.244Z,-6.27
2022-12-18T05:43:17.913Z,-6.31
2022-12-18T05:48:23.350Z,-6.33
2022-12-18T05:53:25.202Z,-6.36
2022-12-18T05:58:26.995Z,-6.36
2022-12-18T06:03:33.691Z,-6.37
2022-12-18T06:08:35.956Z,-6.42
2022-12-18T06:13:39.868Z,-6.42
2022-12-18T06:18:41.804Z,-6.45
2022-12-18T06:23:43.828Z,-6.45
2022-12-18T06:28:45.635Z,-6.44
2022-12-18T06:33:47.670Z,-6.43
2022-12-18T06:38:50.008Z,-6.43
2022-12-18T06:43:55.583Z,-6.45
2022-12-18T06:49:00.304Z,-6.47
2022-12-18T06:54:02.484Z,-6.48
2022-12-18T06:59:04.414Z,-6.48
2022-12-18T07:04:06.184Z,-6.46
2022-12-18T07:09:07.945Z,-6.46
2022-12-18T07:14:09.993Z,-6.49
2022-12-18T07:19:11.774Z,-6.46
2022-12-18T07:24:14.024Z,-6.46
2022-12-18T07:29:15.837Z,-6.45
2022-12-18T07:34:17.925Z,-6.45
2022-12-18T07:39:19.861Z,-6.42
2022-12-18T07:44:21.629Z,-6.34
2022-12-18T07:49:23.338Z,-6.31
2022-12-18T07:54:25.926Z,-6.23
2022-12-18T07:59:28.798Z,-6.11
2022-12-18T08:04:30.597Z,-6.00
2022-12-18T08:09:32.435Z,-5.92
2022-12-18T08:14:34.204Z,-5.80
2022-12-18T08:19:36.150Z,-5.71
2022-12-18T08:24:37.984Z,-5.62
2022-12-18T08:29:39.788Z,-5.59
2022-12-18T08:34:41.548Z,-5.51
2022-12-18T08:39:43.254Z,-5.41
2022-12-18T08:44:45.032Z,-5.26
2022-12-18T08:49:46.839Z,-5.11
2022-12-18T08:54:48.638Z,-4.96
2022-12-18T08:59:50.645Z,-4.79
2022-12-18T09:04:57.097Z,-4.65
2022-12-18T09:09:59.454Z,-4.51
2022-12-18T09:15:01.181Z,-4.44
2022-12-18T09:20:03.135Z,-4.16
2022-12-18T09:25:08.934Z,-4.00
2022-12-18T09:30:11.388Z,-3.55
2022-12-18T09:35:13.224Z,-3.37
2022-12-18T09:40:21.997Z,-3.34
2022-12-18T09:45:24.666Z,-3.33
2022-12-18T09:50:40.412Z,-3.28
2022-12-18T09:55:45.934Z,-3.19
2022-12-18T10:00:48.406Z,-3.17
2022-12-18T10:05:56.165Z,-3.23
2022-12-18T10:11:11.609Z,-3.26
2022-12-18T10:16:25.451Z,-3.24
2022-12-18T10:21:54.857Z,-3.23
2022-12-18T10:27:13.994Z,-3.21
2022-12-18T10:32:22.107Z,-3.19
2022-12-18T10:37:26.877Z,-3.10
2022-12-18T10:42:28.607Z,-3.02
2022-12-18T10:47:30.610Z,-3.04
2022-12-18T10:52:32.434Z,-3.08
2022-12-18T10:57:39.707Z,-3.00
2022-12-18T11:02:41.740Z,-2.95
2022-12-18T11:07:51.759Z,-2.88
2022-12-18T11:12:53.658Z,-2.84
2022-12-18T11:17:55.937Z,-2.81
2022-12-18T11:23:01.154Z,-2.77
2022-12-18T11:28:07.423Z,-2.74
2022-12-18T11:33:27.253Z,-2.75
2022-12-18T11:38:35.791Z,-2.74
2022-12-18T11:43:51.656Z,-2.75
2022-12-18T11:48:55.430Z,-2.78
2022-12-18T11:53:57.195Z,-2.78
2022-12-18T11:59:29.489Z,-2.78
2022-12-18T12:04:44.793Z,-2.77
2022-12-18T12:09:55.326Z,-2.78
2022-12-18T12:15:11.593Z,-2.77
2022-12-18T12:20:46.054Z,-2.76
2022-12-18T12:25:53.839Z,-2.77
2022-12-18T12:31:26.275Z,-2.75
2022-12-18T12:36:41.963Z,-2.73
2022-12-18T12:42:05.095Z,-2.77
2022-12-18T12:47:33.536Z,-2.80
2022-12-18T12:52:43.756Z,-2.85
2022-12-18T12:58:09.245Z,-2.88
2022-12-18T13:03:28.918Z,-2.95
2022-12-18T13:08:33.977Z,-2.99
2022-12-18T13:13:50.902Z,-3.01
2022-12-18T13:19:00.896Z,-3.03
2022-12-18T13:24:24.337Z,-3.06
2022-12-18T13:29:46.283Z,-3.10
2022-12-18T13:34:48.627Z,-3.15
2022-12-18T13:39:50.522Z,-3.19
2022-12-18T13:44:52.757Z,-3.23
2022-12-18T13:49:55.978Z,-3.22
2022-12-18T13:55:00.604Z,-3.21
2022-12-18T14:00:29.203Z,-3.21
2022-12-18T14:05:33.352Z,-3.24
2022-12-18T14:10:47.886Z,-3.32
2022-12-18T14:15:51.954Z,-3.40
2022-12-18T14:20:57.968Z,-3.46
2022-12-18T14:26:05.784Z,-3.54
2022-12-18T14:31:20.562Z,-3.61
2022-12-18T14:36:29.595Z,-3.67
2022-12-18T14:41:32.358Z,-3.74
2022-12-18T14:46:37.786Z,-3.78
2022-12-18T14:51:39.716Z,-3.81
2022-12-18T14:56:48.554Z,-3.81
2022-12-18T15:02:18.340Z,-3.83
2022-12-18T15:07:22.815Z,-3.87
2022-12-18T15:12:40.904Z,-3.92
2022-12-18T15:17:42.548Z,-3.95
2022-12-18T15:22:44.298Z,-4.01
2022-12-18T15:27:48.468Z,-4.04
2022-12-18T15:32:51.348Z,-4.09
2022-12-18T15:37:53.546Z,-4.11
2022-12-18T15:43:15.386Z,-4.14
2022-12-18T15:48:25.933Z,-4.17
2022-12-18T15:53:33.495Z,-4.22
2022-12-18T15:58:35.441Z,-4.23
2022-12-18T16:03:38.029Z,-4.27
2022-12-18T16:08:40.316Z,-4.28
2022-12-18T16:13:43.755Z,-4.31
2022-12-18T16:18:45.724Z,-4.32
2022-12-18T16:23:47.765Z,-4.29
2022-12-18T16:28:49.524Z,-4.30
2022-12-18T16:34:13.805Z,-4.27
2022-12-18T16:39:15.740Z,-4.23
2022-12-18T16:44:17.800Z,-4.21
2022-12-18T16:49:20.234Z,-4.17
2022-12-18T16:54:22.214Z,-4.11
2022-12-18T16:59:24.015Z,-4.06
2022-12-18T17:04:25.795Z,-4.04
2022-12-18T17:09:27.728Z,-4.05
2022-12-18T17:14:29.933Z,-4.05
2022-12-18T17:19:31.750Z,-4.03
2022-12-18T17:24:35.359Z,-4.03
2022-12-18T17:29:41.161Z,-4.01
2022-12-18T17:34:47.960Z,-3.98
2022-12-18T17:39:49.749Z,-3.98
2022-12-18T17:44:51.573Z,-3.97
2022-12-18T17:49:53.652Z,-3.94
2022-12-18T17:54:57.582Z,-3.92
2022-12-18T17:59:59.339Z,-3.92
2022-12-18T18:05:01.145Z,-3.89
2022-12-18T18:10:03.087Z,-3.87
2022-12-18T18:15:05.223Z,-3.87
2022-12-18T18:20:07.949Z,-3.83
2022-12-18T18:25:10.519Z,-3.82
2022-12-18T18:30:13.328Z,-3.82
2022-12-18T18:35:44.731Z,-3.79
2022-12-18T18:40:37.216Z,-3.79
2022-12-18T18:45:39.053Z,-3.77
2022-12-18T18:50:44.077Z,-3.76
2022-12-18T18:55:51.696Z,-3.76
2022-12-18T19:01:16.668Z,-3.77
2022-12-18T19:06:24.053Z,-3.77
2022-12-18T19:11:45.543Z,-3.78
2022-12-18T19:16:47.424Z,-3.79
2022-12-18T19:21:50.134Z,-3.78
2022-12-18T19:26:52.302Z,-3.77
2022-12-18T19:31:57.307Z,-3.75
2022-12-18T19:37:00.062Z,-3.71
2022-12-18T19:42:02.261Z,-3.67
2022-12-18T19:47:04.064Z,-3.64
2022-12-18T19:52:05.847Z,-3.59
2022-12-18T19:57:11.503Z,-3.49
2022-12-18T20:02:14.019Z,-3.43
2022-12-18T20:07:16.106Z,-3.38
2022-12-18T20:12:18.074Z,-3.29
2022-12-18T20:17:20.107Z,-3.23
2022-12-18T20:22:22.756Z,-3.19
2022-12-18T20:27:25.055Z,-3.17
2022-12-18T20:32:26.963Z,-3.16
2022-12-18T20:37:31.402Z,-3.12
2022-12-18T20:42:33.504Z,-3.06
2022-12-18T20:47:35.218Z,-2.99
2022-12-18T20:52:36.944Z,-2.96
2022-12-18T20:57:39.199Z,-2.93
2022-12-18T21:02:41.118Z,-2.92
2022-12-18T21:07:43.295Z,-2.89
2022-12-18T21:13:00.180Z,-2.84
2022-12-18T21:18:05.350Z,-2.78
2022-12-18T21:23:16.023Z,-2.69
2022-12-18T21:28:18.816Z,-2.64
2022-12-18T21:33:20.815Z,-2.61
2022-12-18T21:38:22.651Z,-2.59
2022-12-18T21:43:43.047Z,-2.58
2022-12-18T21:48:44.814Z,-2.57
2022-12-18T21:53:47.627Z,-2.54
2022-12-18T21:58:56.684Z,-2.55
2022-12-18T22:03:59.248Z,-2.57
2022-12-18T22:09:01.148Z,-2.61
2022-12-18T22:14:02.938Z,-2.64
2022-12-18T22:19:04.734Z,-2.66
2022-12-18T22:24:10.783Z,-2.70
2022-12-18T22:29:37.846Z,-2.72
2022-12-18T22:34:39.723Z,-2.74
2022-12-18T22:39:41.535Z,-2.77
2022-12-18T22:44:43.753Z,-2.76
2022-12-18T22:49:45.676Z,-2.74
2022-12-18T22:54:47.515Z,-2.70
2022-12-18T22:59:50.380Z,-2.71
2022-12-18T23:04:52.439Z,-2.71
2022-12-18T23:10:00.798Z,-2.69
2022-12-18T23:15:04.908Z,-2.71
2022-12-18T23:20:07.224Z,-2.75
2022-12-18T23:25:09.555Z,-2.79
2022-12-18T23:30:11.944Z,-2.81
2022-12-18T23:35:15.548Z,-2.80
2022-12-18T23:40:18.224Z,-2.79
2022-12-18T23:45:20.331Z,-2.81
2022-12-18T23:50:29.116Z,-2.84
2022-12-18T23:55:32.099Z,-2.89
